Time;durP1;ratioP1;P1;durP2;ratioP2;P2;SDS_P1;SDS_P2;PMS_P1;PMS_P2;Temp;Humidity;BMP_temperature;BMP_pressure;BME280_temperature;BME280_humidity;BME280_pressure;Samples;Min_cycle;Max_cycle;Signal;HPM_P1;HPM_P2
2022/05/08 00:00:42;;;;;;;7.88;7.07;;;14.30;60.00;;;14.85;49.27;98093.75;4911570;29;20052;-40
2022/05/08 00:03:10;;;;;;;8.82;7.93;;;14.40;59.80;;;14.82;49.46;98096.81;4912461;29;20055;-41
2022/05/08 00:05:39;;;;;;;9.13;7.88;;;14.30;60.10;;;14.78;49.55;98096.31;4911093;29;20188;-40
2022/05/08 00:08:09;;;;;;;9.80;8.30;;;14.20;60.50;;;14.76;49.75;98099.19;4913267;29;20351;-40
2022/05/08 00:10:37;;;;;;;9.63;7.75;;;14.20;60.40;;;14.73;49.92;98099.56;4910921;29;20070;-40
2022/05/08 00:13:05;;;;;;;8.77;7.32;;;14.20;61.00;;;14.71;50.19;98098.91;4911658;29;20059;-40
2022/05/08 00:15:33;;;;;;;8.45;7.65;;;14.20;61.30;;;14.69;50.05;98094.69;4911624;29;20058;-40
2022/05/08 00:18:00;;;;;;;9.10;7.65;;;14.20;61.10;;;14.65;50.27;98096.91;4894691;29;20364;-40
2022/05/08 00:20:30;;;;;;;9.30;7.68;;;14.10;61.40;;;14.63;50.46;98100.78;4911435;29;20052;-40
2022/05/08 00:22:58;;;;;;;8.65;7.03;;;14.10;62.00;;;14.62;50.20;98086.53;4911693;29;20051;-40
2022/05/08 00:25:27;;;;;;;7.82;6.63;;;14.10;61.60;;;14.45;50.39;98085.75;4911138;29;20055;-40
2022/05/08 00:27:55;;;;;;;7.93;7.13;;;13.80;63.00;;;14.30;50.51;98095.53;4926050;29;20261;-40
2022/05/08 00:30:23;;;;;;;10.27;7.13;;;13.50;63.00;;;14.25;50.65;98097.88;4909158;29;20064;-40
2022/05/08 00:32:51;;;;;;;7.78;6.97;;;13.60;62.90;;;14.22;50.61;98087.53;4910830;29;20079;-40
2022/05/08 00:35:18;;;;;;;15.05;7.93;;;13.50;63.20;;;14.20;51.08;98097.59;4911067;29;20058;-40
2022/05/08 00:37:46;;;;;;;10.13;7.82;;;13.60;63.10;;;14.19;51.21;98088.72;4911840;29;20371;-40
2022/05/08 00:40:14;;;;;;;9.20;8.00;;;13.60;63.50;;;14.10;51.51;98087.91;4910061;29;20048;-40
2022/05/08 00:42:43;;;;;;;8.77;7.82;;;13.40;64.00;;;14.07;51.75;98084.75;4893656;29;20059;-40
2022/05/08 00:45:11;;;;;;;10.52;8.35;;;13.50;64.30;;;14.04;51.96;98090.47;4894212;29;20070;-40
2022/05/08 00:47:40;;;;;;;10.43;8.00;;;13.40;64.70;;;14.00;51.90;98089.97;4910298;29;20059;-40
2022/05/08 00:50:08;;;;;;;9.23;7.82;;;13.40;64.70;;;13.97;52.09;98085.75;4910108;29;20238;-40
2022/05/08 00:52:36;;;;;;;9.13;8.18;;;13.40;64.90;;;13.94;52.11;98086.13;4909811;29;20056;-40
2022/05/08 00:55:06;;;;;;;8.52;7.60;;;13.40;65.10;;;13.92;52.08;98087.28;4910573;29;20064;-40
2022/05/08 00:57:36;;;;;;;8.35;7.55;;;13.30;65.40;;;13.90;52.19;98084.81;4911143;29;20066;-40
2022/05/08 01:00:08;;;;;;;10.38;8.32;;;13.30;65.20;;;13.88;52.22;98080.59;4909917;29;20060;-40
2022/05/08 01:02:37;;;;;;;9.75;8.43;;;13.30;65.40;;;13.83;52.27;98072.28;4910729;29;20246;-40
2022/05/08 01:05:06;;;;;;;14.75;9.65;;;13.20;65.60;;;13.80;52.21;98089.50;4911691;29;20052;-40
2022/05/08 01:07:34;;;;;;;13.60;9.80;;;13.20;65.50;;;13.78;52.55;98076.31;4911197;29;20052;-40
2022/05/08 01:10:02;;;;;;;20.67;13.52;;;13.20;65.80;;;13.73;52.53;98075.16;4909519;29;20063;-40
2022/05/08 01:12:33;;;;;;;15.43;11.52;;;13.10;65.80;;;13.71;53.15;98069.13;4909867;29;20055;-40
2022/05/08 01:15:18;;;;;;;17.23;12.70;;;13.10;66.00;;;13.70;52.49;98068.28;4925558;29;20238;-40
2022/05/08 01:17:49;;;;;;;9.73;8.50;;;13.20;66.80;;;13.67;52.70;98074.00;4911116;29;20048;-40
2022/05/08 01:20:17;;;;;;;9.73;8.40;;;13.10;65.70;;;13.67;52.55;98065.97;4908006;29;20052;-40
2022/05/08 01:22:45;;;;;;;10.48;9.40;;;13.10;65.70;;;13.66;52.65;98068.81;4910363;29;20052;-40
2022/05/08 01:25:13;;;;;;;17.63;10.80;;;13.10;65.70;;;13.64;52.66;98077.00;4910701;29;20056;-40
2022/05/08 01:27:41;;;;;;;19.33;10.95;;;13.10;65.80;;;13.64;52.79;98077.00;4910875;29;20238;-40
2022/05/08 01:30:10;;;;;;;16.17;11.82;;;13.10;65.70;;;13.63;52.91;98070.00;4911191;29;20048;-40
2022/05/08 01:32:37;;;;;;;17.23;11.98;;;13.10;65.90;;;13.64;52.90;98068.97;4909915;29;20376;-40
2022/05/08 01:35:06;;;;;;;13.73;9.75;;;13.20;65.80;;;13.58;53.18;98067.81;4893134;29;20055;-40
2022/05/08 01:37:34;;;;;;;10.95;9.18;;;13.00;66.40;;;13.57;52.94;98067.97;4909713;29;20258;-40
2022/05/08 01:40:02;;;;;;;9.45;8.20;;;13.00;66.10;;;13.59;53.00;98071.34;4913173;29;20062;-40
2022/05/08 01:42:31;;;;;;;8.23;7.40;;;13.10;66.10;;;13.58;52.95;98070.47;4913579;29;20058;-40
2022/05/08 01:44:59;;;;;;;8.70;7.25;;;13.10;65.90;;;13.59;53.03;98064.13;4914231;29;20063;-40
2022/05/08 01:50:13;;;;;;;10.25;8.10;;;13.20;65.80;;;13.59;53.39;98064.13;4913476;29;20484;-40
2022/05/08 01:52:41;;;;;;;9.35;8.20;;;13.20;66.20;;;13.57;53.49;98068.81;4913096;29;20077;-40
2022/05/08 01:55:09;;;;;;;10.15;9.15;;;13.10;66.50;;;13.57;53.54;98066.16;4912964;29;20056;-40
2022/05/08 01:57:36;;;;;;;9.90;8.90;;;13.10;66.60;;;13.56;53.80;98067.13;4913555;29;20246;-40
2022/05/08 02:00:06;;;;;;;11.43;9.25;;;13.10;66.60;;;13.56;53.68;98064.47;4913566;29;20058;-40
2022/05/08 02:02:43;;;;;;;11.63;9.75;;;13.10;66.80;;;13.56;53.89;98067.13;4917629;29;20054;-40
2022/05/08 02:05:11;;;;;;;11.50;9.02;;;13.10;66.90;;;13.55;53.65;98062.81;4913499;29;20330;-40
2022/05/08 02:07:39;;;;;;;10.50;8.68;;;13.10;66.80;;;13.59;53.58;98080.19;4912889;29;20062;-40
2022/05/08 02:10:07;;;;;;;9.95;8.93;;;13.20;66.60;;;13.57;53.88;98084.88;4911960;29;20062;-40
2022/05/08 02:12:35;;;;;;;10.98;9.25;;;13.10;67.50;;;13.36;54.47;98093.41;4913784;29;20056;-40
2022/05/08 02:15:05;;;;;;;9.68;8.68;;;12.80;68.50;;;13.26;54.86;98091.88;4914105;29;20059;-40
2022/05/08 02:17:35;;;;;;;11.55;9.48;;;12.70;69.20;;;13.26;54.68;98090.06;4913441;29;20052;-41
2022/05/08 02:20:07;;;;;;;10.52;9.52;;;12.70;69.10;;;13.29;54.57;98099.56;4913330;29;20110;-40
2022/05/08 02:22:36;;;;;;;14.10;9.77;;;12.70;68.80;;;13.34;54.47;98094.59;4913004;29;20261;-40
2022/05/08 02:25:07;;;;;;;9.68;8.52;;;12.90;68.20;;;13.35;54.37;98089.06;4914017;29;20048;-40
2022/05/08 02:27:41;;;;;;;10.90;7.88;;;12.90;68.30;;;13.35;54.63;98091.72;4913412;29;20267;-40
2022/05/08 02:30:11;;;;;;;9.20;7.70;;;12.90;68.30;;;13.32;54.26;98089.41;4913682;29;20082;-39
2022/05/08 02:32:39;;;;;;;9.18;8.27;;;12.80;68.20;;;13.26;54.10;98086.53;4913638;29;20067;-40
2022/05/08 02:35:12;;;;;;;9.82;8.82;;;12.70;68.30;;;13.18;54.19;98088.22;4912182;29;20069;-40
2022/05/08 02:37:41;;;;;;;9.50;8.50;;;12.50;68.60;;;13.14;54.03;98084.22;4914282;29;20063;-40
2022/05/08 02:40:10;;;;;;;10.20;8.27;;;12.50;68.60;;;13.10;54.20;98092.72;4912152;29;20047;-39
2022/05/08 02:42:39;;;;;;;11.82;8.45;;;12.40;68.80;;;12.92;54.63;98096.38;4912060;29;20075;-40
2022/05/08 02:45:11;;;;;;;9.98;8.98;;;12.20;70.10;;;12.82;55.17;98086.84;4913738;29;20066;-40
2022/05/08 02:47:41;;;;;;;9.50;8.60;;;12.10;70.80;;;12.74;55.25;98093.00;4927785;29;20067;-40
2022/05/08 02:50:10;;;;;;;11.05;9.45;;;12.00;72.30;;;12.64;56.08;98090.47;4912238;29;20063;-40
2022/05/08 02:52:40;;;;;;;10.25;9.25;;;11.90;72.60;;;12.59;55.78;98087.47;4912651;29;20250;-40
2022/05/08 03:00:47;;;;;;;9.68;8.68;;;12.00;71.80;;;12.54;55.61;98093.31;4912451;29;20052;-40
2022/05/08 03:03:16;;;;;;;9.85;8.40;;;11.90;72.40;;;12.50;56.10;98083.09;4912767;29;20063;-39
2022/05/08 03:05:47;;;;;;;9.70;7.87;;;11.90;72.30;;;12.46;56.04;98087.91;4911947;29;20060;-40
2022/05/08 03:08:17;;;;;;;9.13;8.23;;;11.80;72.70;;;12.40;56.18;98083.22;4912921;29;20052;-39
2022/05/08 03:13:41;;;;;;;9.23;8.13;;;11.80;72.30;;;12.27;56.53;98085.50;4913127;29;20073;-40
2022/05/08 03:16:12;;;;;;;10.02;7.90;;;11.60;73.50;;;12.23;56.59;98085.00;4926029;29;20051;-40
2022/05/08 03:18:41;;;;;;;8.70;7.80;;;11.60;73.30;;;12.20;56.44;98086.16;4912300;29;20052;-39
2022/05/08 03:21:10;;;;;;;9.80;8.17;;;11.60;73.40;;;12.18;56.71;98088.16;4913446;29;20362;-40
2022/05/08 03:23:42;;;;;;;8.93;8.02;;;11.50;73.40;;;12.21;56.79;98082.50;4912002;29;20048;-40
2022/05/08 03:26:14;;;;;;;8.07;7.28;;;11.60;73.10;;;12.26;56.44;98086.53;4912405;29;20054;-39
2022/05/08 03:28:42;;;;;;;10.47;8.43;;;11.70;72.60;;;12.28;56.57;98088.03;4911599;29;20283;-40
2022/05/08 03:31:11;;;;;;;8.70;7.47;;;11.80;72.10;;;12.33;56.08;98087.53;4912694;29;20060;-40
2022/05/08 03:33:40;;;;;;;9.13;7.55;;;11.80;71.80;;;12.32;56.39;98083.19;4913211;29;20351;-39
2022/05/08 03:36:13;;;;;;;8.97;8.03;;;11.80;72.00;;;12.32;56.62;98086.69;4912731;29;20052;-39
2022/05/08 03:38:43;;;;;;;8.88;7.95;;;11.80;72.00;;;12.34;56.44;98086.53;4912906;29;20052;-40
2022/05/08 03:41:17;;;;;;;8.43;7.53;;;11.80;72.20;;;12.33;56.39;98083.06;4910062;29;20216;-40
2022/05/08 03:43:46;;;;;;;8.37;7.17;;;11.80;71.80;;;12.35;56.48;98082.91;4911735;29;20058;-40
2022/05/08 03:46:15;;;;;;;8.43;7.63;;;11.90;71.60;;;12.35;56.25;98085.56;4911929;29;20078;-40
2022/05/08 03:48:44;;;;;;;9.00;8.10;;;11.80;71.80;;;12.33;56.54;98080.38;4911416;29;20054;-40
2022/05/08 03:51:12;;;;;;;9.37;8.03;;;11.80;72.00;;;12.31;56.67;98078.84;4911273;29;20356;-40
2022/05/08 03:53:42;;;;;;;11.97;8.60;;;11.80;72.00;;;12.29;56.35;98088.84;4911646;29;20655;-40
2022/05/08 03:56:10;;;;;;;8.47;7.67;;;11.70;72.10;;;12.26;56.50;98090.03;4910633;29;20117;-40
2022/05/08 03:58:41;;;;;;;12.45;8.20;;;11.70;72.30;;;12.26;56.65;98089.19;4912003;29;20067;-40
2022/05/08 04:01:09;;;;;;;10.13;8.03;;;11.70;72.40;;;12.26;56.83;98086.53;4910888;29;20056;-39
2022/05/08 04:03:38;;;;;;;9.40;8.50;;;11.70;72.30;;;12.24;56.73;98081.34;4912184;29;20062;-40
2022/05/08 04:06:06;;;;;;;10.65;9.48;;;11.70;72.40;;;12.23;56.90;98086.84;4911907;29;20060;-39
2022/05/08 04:08:34;;;;;;;12.87;8.90;;;11.70;72.80;;;12.23;56.90;98094.84;4911032;29;20048;-40
2022/05/08 04:11:02;;;;;;;10.05;8.85;;;11.70;72.70;;;12.20;57.18;98098.69;4911259;29;20075;-39
2022/05/08 04:13:30;;;;;;;13.97;12.27;;;11.70;72.80;;;12.20;56.97;98104.84;4911409;29;20052;-39
2022/05/08 04:16:16;;;;;;;11.05;9.95;;;11.60;72.80;;;12.19;56.80;98105.00;4911342;29;20055;-39
2022/05/08 04:18:45;;;;;;;12.13;8.70;;;11.70;73.00;;;12.18;57.01;98106.00;4911691;29;20055;-39
2022/05/08 04:21:13;;;;;;;11.73;9.87;;;11.70;73.00;;;12.17;57.18;98107.00;4910698;29;20048;-39
2022/05/08 04:26:29;;;;;;;15.32;12.07;;;11.60;73.10;;;12.13;57.07;98116.31;4911644;29;20624;-40
2022/05/08 04:29:00;;;;;;;12.77;11.50;;;11.60;73.50;;;12.08;57.34;98114.13;4910235;29;20062;-40
2022/05/08 04:31:28;;;;;;;12.60;10.27;;;11.50;74.30;;;12.09;57.65;98123.81;4910904;29;20048;-39
2022/05/08 04:33:57;;;;;;;10.43;9.37;;;11.60;74.20;;;12.09;57.41;98125.66;4911575;29;20055;-39
2022/05/08 04:36:24;;;;;;;12.60;9.67;;;11.60;74.20;;;12.09;57.76;98131.81;4912603;29;20242;-39
2022/05/08 04:38:52;;;;;;;11.73;9.07;;;11.60;74.10;;;12.10;57.70;98132.66;4911192;29;20052;-40
2022/05/08 04:41:20;;;;;;;11.20;9.97;;;11.60;74.20;;;12.08;57.81;98135.50;4909017;29;20157;-40
2022/05/08 04:43:49;;;;;;;10.53;9.43;;;11.60;74.20;;;12.09;57.64;98130.97;4911532;29;20410;-40
2022/05/08 04:46:17;;;;;;;11.37;9.00;;;11.60;74.20;;;12.09;57.53;98126.47;4910997;29;20054;-39
2022/05/08 04:48:45;;;;;;;10.60;9.50;;;11.60;74.60;;;12.07;57.83;98127.63;4910518;29;20066;-40
2022/05/08 04:51:12;;;;;;;11.13;9.33;;;11.50;74.80;;;12.05;57.95;98132.28;4910189;29;20231;-40
2022/05/08 04:53:41;;;;;;;10.00;9.00;;;11.50;75.20;;;12.03;58.27;98135.13;4910493;29;20066;-40
2022/05/08 04:56:09;;;;;;;12.00;9.07;;;11.50;75.30;;;12.05;58.05;98133.13;4910818;29;20051;-40
2022/05/08 04:58:36;;;;;;;9.75;8.82;;;11.60;75.10;;;12.08;58.32;98143.50;4892703;29;20056;-40
2022/05/08 05:01:05;;;;;;;9.63;8.30;;;11.60;74.80;;;12.10;58.25;98140.69;4910560;29;20058;-40
2022/05/08 05:03:33;;;;;;;13.03;9.87;;;11.60;74.60;;;12.10;58.13;98135.34;4911012;29;20492;-40
2022/05/08 05:06:01;;;;;;;9.40;8.35;;;11.60;74.80;;;12.12;58.37;98141.34;4910965;29;20325;-40
2022/05/08 05:08:29;;;;;;;9.80;8.80;;;11.80;75.00;;;12.13;58.64;98137.66;4909395;29;20066;-40
2022/05/08 05:10:56;;;;;;;10.23;8.37;;;11.70;75.00;;;12.12;58.25;98139.50;4910609;29;20051;-39
2022/05/08 05:13:25;;;;;;;11.67;9.87;;;11.70;75.00;;;12.14;58.38;98134.84;4909648;29;20058;-40
2022/05/08 05:15:52;;;;;;;12.87;9.93;;;11.70;75.10;;;12.19;58.30;98147.69;4910548;29;20066;-40
2022/05/08 05:18:20;;;;;;;10.43;9.00;;;11.80;74.90;;;12.23;58.67;98145.56;4910205;29;20488;-40
2022/05/08 05:20:48;;;;;;;9.55;8.55;;;11.80;75.00;;;12.27;58.64;98142.44;4910859;29;20354;-40
2022/05/08 05:23:16;;;;;;;12.57;9.93;;;11.90;75.20;;;12.32;58.80;98149.94;4909949;29;20048;-40
2022/05/08 05:25:44;;;;;;;10.82;9.10;;;12.00;75.30;;;12.39;58.78;98146.47;4910562;29;20100;-40
2022/05/08 05:28:12;;;;;;;12.27;11.05;;;12.10;75.20;;;12.45;59.01;98153.00;4909681;29;20249;-40
2022/05/08 05:30:39;;;;;;;13.10;9.93;;;12.10;75.10;;;12.44;58.99;98156.66;4909193;29;20287;-40
2022/05/08 05:33:10;;;;;;;11.67;9.83;;;12.10;75.30;;;12.43;59.22;98156.81;4909985;29;20070;-40
2022/05/08 05:35:38;;;;;;;12.32;10.95;;;12.10;75.70;;;12.43;59.16;98163.03;4910900;29;20060;-40
2022/05/08 05:38:05;;;;;;;12.40;10.82;;;12.10;75.80;;;12.45;59.00;98160.19;4909965;29;20058;-40
2022/05/08 05:40:33;;;;;;;11.73;10.27;;;12.10;75.70;;;12.52;59.50;98169.22;4910822;29;20044;-40
2022/05/08 05:43:01;;;;;;;11.85;10.50;;;12.20;76.00;;;12.58;59.67;98163.22;4910390;29;20215;-40
2022/05/08 05:45:29;;;;;;;13.68;10.50;;;12.30;76.10;;;12.65;59.27;98156.25;4910927;29;20058;-40
2022/05/08 05:47:59;;;;;;;12.88;11.13;;;12.40;76.20;;;12.69;59.54;98162.94;4909862;29;20055;-40
2022/05/08 05:50:28;;;;;;;13.27;11.15;;;12.40;76.10;;;12.74;59.40;98162.47;4924492;29;20063;-40
2022/05/08 05:52:56;;;;;;;12.75;11.27;;;12.50;75.90;;;12.79;59.37;98155.66;4910342;29;20063;-40
2022/05/08 05:55:23;;;;;;;12.95;11.68;;;12.50;75.50;;;12.84;58.92;98163.16;4910316;29;20056;-40
2022/05/08 05:57:51;;;;;;;16.55;12.63;;;12.60;75.30;;;12.87;59.35;98160.19;4909443;29;20048;-40
2022/05/08 06:00:22;;;;;;;14.27;12.10;;;12.60;75.10;;;12.91;59.33;98166.84;4910181;29;20054;-40
2022/05/08 06:02:50;;;;;;;14.73;13.18;;;12.70;75.40;;;12.95;59.12;98167.34;4909597;29;20050;-40
2022/05/08 06:05:18;;;;;;;14.68;11.73;;;12.70;75.50;;;12.99;59.32;98166.03;4911068;29;20059;-40
2022/05/08 06:07:45;;;;;;;14.25;12.20;;;12.70;75.40;;;13.00;59.61;98171.19;4910218;29;20254;-40
2022/05/08 06:10:14;;;;;;;14.75;11.80;;;12.70;75.70;;;13.05;59.71;98170.72;4911566;29;20358;-40
2022/05/08 06:12:42;;;;;;;17.48;13.73;;;12.80;75.80;;;13.11;59.81;98172.75;4908706;29;20068;-40
2022/05/08 06:15:10;;;;;;;13.57;11.93;;;12.90;76.20;;;13.15;59.86;98173.25;4910706;29;20058;-40
2022/05/08 06:17:38;;;;;;;14.25;12.60;;;13.00;76.50;;;13.20;59.88;98176.25;4910785;29;20052;-40
2022/05/08 06:20:07;;;;;;;13.98;12.65;;;13.00;76.50;;;13.22;60.02;98176.09;4909102;29;20052;-40
2022/05/08 06:22:35;;;;;;;13.23;11.82;;;13.00;76.70;;;13.26;59.99;98172.94;4910070;29;20052;-40
2022/05/08 06:25:04;;;;;;;14.88;12.40;;;13.10;77.00;;;13.27;60.16;98177.28;4911619;29;20365;-40
2022/05/08 06:27:32;;;;;;;13.23;11.82;;;13.10;77.20;;;13.30;60.18;98178.78;4913648;29;20048;-40
2022/05/08 06:30:00;;;;;;;15.95;11.02;;;13.10;77.60;;;13.31;60.17;98183.97;4913279;29;20052;-40
2022/05/08 06:32:29;;;;;;;15.15;12.65;;;13.10;77.80;;;13.34;60.26;98188.19;4913116;29;20060;-40
2022/05/08 06:35:15;;;;;;;14.93;11.73;;;13.10;78.10;;;13.36;60.39;98186.19;4913477;29;20082;-40
2022/05/08 06:37:43;;;;;;;13.38;12.00;;;13.20;78.30;;;13.36;60.50;98187.00;4912332;29;20060;-40
2022/05/08 06:40:12;;;;;;;15.05;13.43;;;13.20;78.90;;;13.37;60.55;98191.34;4911169;29;20219;-40
2022/05/08 06:42:40;;;;;;;16.95;14.95;;;13.20;78.90;;;13.41;60.64;98196.38;4926302;29;20070;-40
2022/05/08 06:45:09;;;;;;;16.27;13.60;;;13.20;79.30;;;13.42;60.66;98192.72;4927196;29;20051;-40
2022/05/08 06:47:37;;;;;;;16.15;13.02;;;13.20;79.30;;;13.45;60.70;98200.38;4912887;29;20082;-40
2022/05/08 06:50:06;;;;;;;15.93;13.85;;;13.30;79.30;;;13.50;60.64;98206.91;4912460;29;20048;-40
2022/05/08 06:52:34;;;;;;;16.70;14.52;;;13.30;79.30;;;13.54;60.86;98200.22;4909777;29;20068;-40
2022/05/08 06:55:03;;;;;;;16.48;14.68;;;13.40;79.20;;;13.59;60.89;98203.25;4911288;29;20052;-40
2022/05/08 06:57:31;;;;;;;17.38;15.50;;;13.50;79.20;;;13.64;60.80;98208.09;4911568;29;20086;-40
2022/05/08 07:02:47;;;;;;;16.25;14.55;;;13.60;78.90;;;13.73;60.73;98201.75;4911517;29;20262;-40
2022/05/08 07:05:15;;;;;;;16.65;14.85;;;13.70;79.00;;;13.77;60.97;98200.41;4911200;29;20064;-40
2022/05/08 07:07:43;;;;;;;17.45;15.65;;;13.70;79.10;;;13.82;61.10;98199.03;4911391;29;20078;-40
2022/05/08 07:10:11;;;;;;;15.93;14.10;;;13.70;79.20;;;13.88;61.00;98207.25;4911106;29;20052;-40
2022/05/08 07:12:39;;;;;;;15.77;14.07;;;13.80;79.20;;;13.92;61.10;98213.94;4910315;29;20052;-40
2022/05/08 07:15:08;;;;;;;16.02;13.00;;;13.90;79.00;;;13.98;60.80;98212.44;4911830;29;20051;-40
2022/05/08 07:17:35;;;;;;;16.83;13.73;;;13.90;78.30;;;14.03;60.49;98201.22;4910507;29;20063;-40
2022/05/08 07:20:05;;;;;;;15.82;14.13;;;14.00;77.70;;;14.06;60.35;98208.91;4911243;29;20224;-40
2022/05/08 07:22:35;;;;;;;16.80;13.45;;;14.00;77.20;;;14.09;60.17;98213.91;4911128;29;20056;-40
2022/05/08 07:25:03;;;;;;;17.05;14.00;;;14.00;76.70;;;14.11;60.06;98218.09;4911010;29;20050;-40
2022/05/08 07:27:36;;;;;;;16.23;12.75;;;14.00;76.50;;;14.13;59.75;98215.25;4911597;29;20048;-40
2022/05/08 07:30:04;;;;;;;15.38;13.77;;;14.00;76.20;;;14.13;59.93;98210.75;4910802;29;20064;-40
2022/05/08 07:32:34;;;;;;;15.43;13.80;;;14.00;76.10;;;14.17;59.74;98228.13;4911901;29;20048;-40
2022/05/08 07:37:50;;;;;;;16.35;13.63;;;14.10;76.10;;;14.22;59.72;98232.16;4911035;29;20366;-40
2022/05/08 07:40:18;;;;;;;15.73;12.55;;;14.10;76.10;;;14.24;59.73;98233.63;4909897;29;20382;-40
2022/05/08 07:42:47;;;;;;;14.60;12.88;;;14.10;76.00;;;14.27;59.67;98233.31;4910716;29;20052;-40
2022/05/08 07:45:14;;;;;;;13.15;11.73;;;14.20;75.80;;;14.30;59.64;98234.81;4910001;29;20044;-40
2022/05/08 07:47:43;;;;;;;13.88;12.48;;;14.20;75.80;;;14.33;60.04;98242.50;4910758;29;20238;-40
2022/05/08 07:50:10;;;;;;;15.73;12.95;;;14.20;75.80;;;14.36;59.66;98243.00;4909955;29;20052;-40
2022/05/08 07:52:41;;;;;;;15.63;13.43;;;14.30;75.90;;;14.39;59.70;98241.81;4910609;29;20056;-40
2022/05/08 07:55:09;;;;;;;13.55;11.57;;;14.30;75.60;;;14.43;59.76;98236.97;4910256;29;20066;-40
2022/05/08 07:57:37;;;;;;;16.02;12.15;;;14.40;75.10;;;14.48;59.34;98245.28;4910375;29;20086;-40
2022/05/08 08:04:54;;;;;;;11.68;10.32;;;14.50;73.90;;;14.62;58.80;98252.69;4922242;29;20035;-40
2022/05/08 08:07:22;;;;;;;12.50;9.43;;;14.60;73.50;;;14.67;58.70;98252.16;4919056;29;20044;-40
2022/05/08 08:09:50;;;;;;;12.52;10.65;;;14.70;72.80;;;14.69;58.58;98250.94;4917764;29;20062;-40
2022/05/08 08:12:18;;;;;;;11.38;10.10;;;14.80;72.30;;;14.75;58.69;98258.34;4917012;29;20078;-40
2022/05/08 08:14:46;;;;;;;11.95;10.73;;;14.80;72.30;;;14.83;58.58;98257.47;4918523;29;20063;-40
2022/05/08 08:17:15;;;;;;;13.27;10.85;;;14.90;72.30;;;14.90;58.51;98258.41;4918042;29;20245;-40
2022/05/08 08:19:50;;;;;;;13.02;10.60;;;15.00;71.90;;;14.93;58.47;98258.09;4917475;29;20234;-40
2022/05/08 08:22:18;;;;;;;12.13;10.63;;;15.10;71.80;;;15.03;58.48;98260.56;4911399;29;20050;-40
2022/05/08 08:24:46;;;;;;;14.18;9.82;;;15.10;71.70;;;15.11;58.28;98265.06;4911763;29;20058;-40
2022/05/08 08:27:16;;;;;;;12.55;10.27;;;15.30;71.40;;;15.16;58.08;98260.84;4910385;29;20052;-40
2022/05/08 08:29:45;;;;;;;14.27;11.32;;;15.30;70.70;;;15.22;58.02;98264.66;4909508;29;20060;-39
2022/05/08 08:32:13;;;;;;;12.40;11.10;;;15.40;70.60;;;15.26;57.96;98268.66;4911740;29;20811;-40
2022/05/08 08:34:41;;;;;;;13.82;11.85;;;15.40;70.60;;;15.34;57.85;98263.25;4910189;29;20068;-40
2022/05/08 08:37:09;;;;;;;14.27;11.98;;;15.50;70.50;;;15.38;58.00;98265.59;4909978;29;20044;-39
2022/05/08 08:39:37;;;;;;;12.57;10.98;;;15.60;70.70;;;15.43;58.08;98264.03;4909058;29;20071;-40
2022/05/08 08:42:30;;;;;;;13.93;12.45;;;15.60;70.70;;;15.50;57.98;98262.31;4911340;29;20055;-40
2022/05/08 08:48:11;;;;;;;14.07;12.48;;;15.70;71.00;;;15.55;58.47;98269.84;4910364;29;20067;-40
2022/05/08 08:50:39;;;;;;;13.82;11.90;;;15.80;71.20;;;15.64;58.28;98273.28;4910294;29;20074;-40
2022/05/08 08:53:09;;;;;;;12.82;11.52;;;15.80;71.10;;;15.72;58.28;98270.53;4910785;29;20062;-40
2022/05/08 08:55:37;;;;;;;12.38;11.15;;;15.90;71.10;;;15.79;58.29;98273.41;4911148;29;20253;-39
2022/05/08 08:58:05;;;;;;;12.82;11.45;;;16.10;71.00;;;15.84;58.14;98271.00;4910968;29;20052;-39
2022/05/08 09:00:34;;;;;;;13.52;11.95;;;16.10;70.30;;;15.92;58.06;98274.47;4909277;29;20216;-39
2022/05/08 09:03:02;;;;;;;13.38;11.90;;;16.20;70.20;;;15.98;58.01;98275.59;4910663;29;20048;-40
2022/05/08 09:05:32;;;;;;;13.60;11.00;;;16.30;70.00;;;16.11;57.89;98267.75;4910421;29;20326;-40
2022/05/08 09:08:00;;;;;;;14.82;11.98;;;16.40;69.80;;;16.22;57.73;98274.53;4909642;29;20052;-39
2022/05/08 09:10:35;;;;;;;13.18;11.82;;;16.50;69.70;;;16.32;57.61;98272.44;4910918;29;20126;-39
2022/05/08 09:13:06;;;;;;;12.68;11.15;;;16.70;69.70;;;16.45;57.96;98276.34;4909653;29;20064;-39
2022/05/08 09:15:38;;;;;;;13.48;11.13;;;16.80;69.60;;;16.56;57.49;98275.91;4910517;29;20058;-39
2022/05/08 09:18:09;;;;;;;15.82;11.52;;;16.90;69.30;;;16.64;57.36;98269.59;4909955;29;20263;-39
2022/05/08 09:20:47;;;;;;;14.75;11.50;;;17.00;68.50;;;16.73;57.05;98268.50;4910169;29;20354;-39
2022/05/08 09:23:21;;;;;;;12.85;10.68;;;17.10;68.20;;;16.81;56.83;98276.47;4911132;29;20056;-39
2022/05/08 09:26:00;;;;;;;12.77;10.27;;;17.20;68.00;;;16.89;56.63;98268.31;4911591;29;20056;-39
2022/05/08 09:28:43;;;;;;;12.00;10.68;;;17.30;67.70;;;16.97;56.02;98262.00;4908905;29;20044;-39
2022/05/08 09:31:15;;;;;;;12.13;10.88;;;17.40;66.20;;;17.04;56.01;98262.94;4910112;29;20052;-39
2022/05/08 09:33:46;;;;;;;12.07;10.85;;;17.40;66.40;;;17.12;56.04;98267.38;4910030;29;20238;-39
2022/05/08 09:36:17;;;;;;;11.68;10.23;;;17.50;66.30;;;17.19;54.98;98270.97;4911392;29;20070;-39
2022/05/08 09:39:06;;;;;;;13.07;11.30;;;17.60;65.10;;;17.26;55.57;98263.81;4908376;29;20064;-39
2022/05/08 09:41:39;;;;;;;11.25;10.05;;;17.60;65.30;;;17.32;55.50;98260.38;4909504;29;20055;-39
2022/05/08 09:44:12;;;;;;;13.23;11.82;;;17.70;65.20;;;17.39;55.43;98263.16;4909215;29;20245;-39
2022/05/08 09:46:45;;;;;;;13.77;10.23;;;17.80;65.30;;;17.48;55.21;98261.16;4894325;29;20056;-39
2022/05/08 09:49:20;;;;;;;10.65;9.43;;;17.90;65.20;;;17.52;54.64;98263.31;4909400;29;20059;-39
2022/05/08 09:51:49;;;;;;;11.50;9.93;;;18.00;64.60;;;17.59;54.43;98262.53;4909844;29;20062;-40
2022/05/08 09:54:18;;;;;;;10.43;9.38;;;18.00;64.10;;;17.65;54.26;98261.78;4909496;29;20062;-40
2022/05/08 09:56:49;;;;;;;10.82;9.52;;;18.10;64.00;;;17.69;53.56;98260.34;4910592;29;20056;-39
2022/05/08 09:59:19;;;;;;;9.85;8.85;;;18.10;62.90;;;17.74;53.58;98259.78;4911081;29;20363;-39
2022/05/08 10:01:47;;;;;;;11.15;8.48;;;18.20;62.50;;;17.75;52.97;98256.91;4896364;29;20056;-40
2022/05/08 10:04:15;;;;;;;9.60;8.00;;;18.20;61.80;;;17.83;53.02;98258.63;4914340;29;20054;-40
2022/05/08 10:06:43;;;;;;;10.40;7.68;;;18.20;61.90;;;17.92;53.50;98259.38;4912722;29;20121;-39
2022/05/08 10:14:49;;;;;;;10.00;8.65;;;18.50;61.10;;;18.10;52.59;98257.84;4913912;29;20238;-39
2022/05/08 10:17:30;;;;;;;10.55;9.20;;;18.60;60.90;;;18.15;52.32;98260.00;4912187;29;20254;-39
2022/05/08 10:19:58;;;;;;;9.52;8.63;;;18.60;60.70;;;18.21;52.55;98261.06;4895767;29;20067;-39
2022/05/08 10:22:49;;;;;;;11.48;9.55;;;18.60;61.10;;;18.25;51.96;98255.09;4912783;29;20046;-39
2022/05/08 10:25:17;;;;;;;9.48;8.48;;;18.70;59.30;;;18.31;52.18;98256.16;4914738;29;20059;-39
2022/05/08 10:28:07;;;;;;;11.10;8.75;;;18.70;60.70;;;18.27;52.57;98257.59;4911604;29;20064;-40
2022/05/08 10:30:35;;;;;;;11.40;8.75;;;18.70;60.80;;;18.30;52.30;98252.66;4913574;29;20056;-40
2022/05/08 10:33:03;;;;;;;9.85;8.70;;;18.70;60.80;;;18.35;52.48;98241.25;4912643;29;20336;-40
2022/05/08 10:35:31;;;;;;;11.93;8.38;;;18.80;61.10;;;18.40;52.07;98246.09;4912674;29;20062;-40
2022/05/08 10:38:02;;;;;;;11.20;9.02;;;18.80;60.30;;;18.43;52.04;98251.06;4913000;29;20245;-39
2022/05/08 10:40:34;;;;;;;9.65;8.75;;;18.90;60.60;;;18.49;50.89;98245.75;4912484;29;20066;-39
2022/05/08 10:43:13;;;;;;;9.85;8.23;;;18.90;59.10;;;18.49;50.91;98248.44;4912925;29;20056;-40
2022/05/08 10:45:43;;;;;;;11.15;8.65;;;19.00;57.60;;;18.59;51.02;98240.00;4913220;29;20060;-38
2022/05/08 10:48:15;;;;;;;9.95;8.30;;;19.00;58.80;;;18.66;50.22;98242.72;4913393;29;20392;-40
2022/05/08 10:50:55;;;;;;;8.68;7.75;;;19.20;58.30;;;18.74;50.80;98239.03;4913185;29;20265;-39
2022/05/08 10:53:32;;;;;;;8.48;7.68;;;19.20;58.50;;;18.79;49.84;98241.97;4912754;29;20059;-40
2022/05/08 10:56:10;;;;;;;9.80;8.80;;;19.30;57.80;;;18.83;49.61;98232.47;4912035;29;20074;-40